createdAt,value
2022-07-28T00:00:20.581Z,12.43
2022-07-28T00:02:47.453Z,12.37
2022-07-28T00:05:14.342Z,12.35
2022-07-28T00:07:41.434Z,12.37
2022-07-28T00:10:09.229Z,12.37
2022-07-28T00:12:36.274Z,12.39
2022-07-28T00:15:04.502Z,12.40
2022-07-28T00:17:32.214Z,12.36
2022-07-28T00:19:59.060Z,12.35
2022-07-28T00:22:25.850Z,12.35
2022-07-28T00:24:52.889Z,12.38
2022-07-28T00:27:19.813Z,12.41
2022-07-28T00:29:50.313Z,12.47
2022-07-28T00:32:20.597Z,12.48
2022-07-28T00:34:47.959Z,12.47
2022-07-28T00:37:15.141Z,12.51
2022-07-28T00:39:43.599Z,12.54
2022-07-28T00:42:10.530Z,12.56
2022-07-28T00:44:39.125Z,12.59
2022-07-28T00:47:06.159Z,12.63
2022-07-28T00:49:33.403Z,12.64
2022-07-28T00:52:01.531Z,12.67
2022-07-28T00:54:28.412Z,12.68
2022-07-28T00:56:55.559Z,12.65
2022-07-28T00:59:22.416Z,12.63
2022-07-28T01:01:49.903Z,12.62
2022-07-28T01:04:21.861Z,12.61
2022-07-28T01:07:06.719Z,12.59
2022-07-28T01:10:10.094Z,12.55
2022-07-28T01:13:02.358Z,12.50
2022-07-28T01:15:39.074Z,12.45
2022-07-28T01:18:23.237Z,12.41
2022-07-28T01:21:08.726Z,12.41
2022-07-28T01:24:40.732Z,12.42
2022-07-28T01:28:14.378Z,12.41
2022-07-28T01:30:53.344Z,12.40
2022-07-28T01:33:51.266Z,12.39
2022-07-28T01:36:29.316Z,12.37
2022-07-28T01:38:59.622Z,12.34
2022-07-28T01:41:32.223Z,12.28
2022-07-28T01:44:08.517Z,12.17
2022-07-28T01:46:39.222Z,12.01
2022-07-28T01:49:10.592Z,11.84
2022-07-28T01:51:40.273Z,11.64
2022-07-28T01:54:12.135Z,11.47
2022-07-28T01:56:42.810Z,11.38
2022-07-28T01:59:13.854Z,11.36
2022-07-28T02:01:47.180Z,11.36
2022-07-28T02:04:23.213Z,11.42
2022-07-28T02:06:54.208Z,11.53
2022-07-28T02:09:24.728Z,11.62
2022-07-28T02:11:55.658Z,11.72
2022-07-28T02:14:27.498Z,11.81
2022-07-28T02:17:14.843Z,11.84
2022-07-28T02:19:46.017Z,11.87
2022-07-28T02:22:17.030Z,11.90
2022-07-28T02:24:47.314Z,11.88
2022-07-28T02:27:36.246Z,11.85
2022-07-28T02:30:15.328Z,11.80
2022-07-28T02:33:03.480Z,11.74
2022-07-28T02:35:44.707Z,11.67
2022-07-28T02:38:41.034Z,11.59
2022-07-28T02:41:22.419Z,11.52
2022-07-28T02:43:57.695Z,11.43
2022-07-28T02:46:38.398Z,11.36
2022-07-28T02:49:28.469Z,11.29
2022-07-28T02:52:00.279Z,11.22
2022-07-28T02:54:32.879Z,11.19
2022-07-28T02:57:01.934Z,11.16
2022-07-28T02:59:30.051Z,11.11
2022-07-28T03:01:58.983Z,11.06
2022-07-28T03:04:47.009Z,11.02
2022-07-28T03:07:15.441Z,10.95
2022-07-28T03:09:47.146Z,10.93
2022-07-28T03:12:15.273Z,10.91
2022-07-28T03:14:42.899Z,10.90
2022-07-28T03:17:10.402Z,10.87
2022-07-28T03:19:37.490Z,10.85
2022-07-28T03:22:05.559Z,10.83
2022-07-28T03:24:54.491Z,10.81
2022-07-28T03:27:41.001Z,10.80
2022-07-28T03:30:16.611Z,10.80
2022-07-28T03:32:54.495Z,10.81
2022-07-28T03:35:22.015Z,10.84
2022-07-28T03:38:05.617Z,10.88
2022-07-28T03:40:35.367Z,10.92
2022-07-28T03:43:08.212Z,10.95
2022-07-28T03:45:36.791Z,11.00
2022-07-28T03:48:09.224Z,11.05
2022-07-28T03:50:36.045Z,11.01
2022-07-28T03:53:03.453Z,10.83
2022-07-28T03:55:30.951Z,10.76
2022-07-28T03:57:58.040Z,10.63
2022-07-28T04:00:25.843Z,10.53
2022-07-28T04:02:53.026Z,10.45
2022-07-28T04:05:20.471Z,10.35
2022-07-28T04:07:47.546Z,10.28
2022-07-28T04:10:20.657Z,10.20
2022-07-28T04:12:57.545Z,10.14
2022-07-28T04:15:27.869Z,10.08
2022-07-28T04:17:56.302Z,10.02
2022-07-28T04:20:27.670Z,10.00
2022-07-28T04:22:56.410Z,10.10
2022-07-28T04:25:27.414Z,10.24
2022-07-28T04:27:56.135Z,10.38
2022-07-28T04:30:25.612Z,10.51
2022-07-28T04:32:56.341Z,10.64
2022-07-28T04:35:26.637Z,10.75
2022-07-28T04:37:58.376Z,10.90
2022-07-28T04:40:27.950Z,11.03
2022-07-28T04:42:55.871Z,11.16
2022-07-28T04:45:23.242Z,11.24
2022-07-28T04:47:51.672Z,11.35
2022-07-28T04:50:21.287Z,11.46
2022-07-28T04:52:49.818Z,11.53
2022-07-28T04:55:18.505Z,11.58
2022-07-28T04:57:45.686Z,11.69
2022-07-28T05:00:15.373Z,11.85
2022-07-28T05:02:45.005Z,12.01
2022-07-28T05:05:13.445Z,12.14
2022-07-28T05:07:41.862Z,12.31
2022-07-28T05:10:12.869Z,12.45
2022-07-28T05:12:42.191Z,12.59
2022-07-28T05:15:10.040Z,12.72
2022-07-28T05:17:37.156Z,12.79
2022-07-28T05:20:06.574Z,12.91
2022-07-28T05:22:53.640Z,13.00
2022-07-28T05:25:24.517Z,13.06
2022-07-28T05:27:53.744Z,13.15
2022-07-28T05:30:21.751Z,13.33
2022-07-28T05:32:49.472Z,13.52
2022-07-28T05:35:17.047Z,13.65
2022-07-28T05:37:44.158Z,13.78
2022-07-28T05:40:17.298Z,13.88
2022-07-28T05:42:47.981Z,14.00
2022-07-28T05:45:17.646Z,14.01
2022-07-28T05:47:52.720Z,14.09
2022-07-28T05:50:29.140Z,14.16
2022-07-28T05:52:56.100Z,14.26
2022-07-28T05:55:22.955Z,14.31
2022-07-28T05:58:01.523Z,14.45
2022-07-28T06:00:28.755Z,14.54
2022-07-28T06:02:57.138Z,14.62
2022-07-28T06:05:24.031Z,14.68
2022-07-28T06:07:52.022Z,14.75
2022-07-28T06:10:23.378Z,14.86
2022-07-28T06:13:05.465Z,14.98
2022-07-28T06:15:32.243Z,15.11
2022-07-28T06:17:58.991Z,15.29
2022-07-28T06:20:27.889Z,15.41
2022-07-28T06:22:55.713Z,15.54
2022-07-28T06:25:29.629Z,15.61
2022-07-28T06:28:02.857Z,15.66
2022-07-28T06:30:32.025Z,15.72
2022-07-28T06:32:59.199Z,15.86
2022-07-28T06:35:26.288Z,15.96
2022-07-28T06:37:54.032Z,16.05
2022-07-28T06:40:22.345Z,16.11
2022-07-28T06:42:50.013Z,16.19
2022-07-28T06:45:21.436Z,16.22
2022-07-28T06:47:53.691Z,16.49
2022-07-28T06:50:25.917Z,16.89
2022-07-28T06:52:59.136Z,17.22
2022-07-28T06:55:34.396Z,17.25
2022-07-28T06:58:05.026Z,17.40
2022-07-28T07:00:34.367Z,17.56
2022-07-28T07:03:01.723Z,17.66
2022-07-28T07:05:32.724Z,17.68
2022-07-28T07:24:40.495Z,17.76
2022-07-28T07:27:07.480Z,18.06
2022-07-28T07:29:34.550Z,18.27
2022-07-28T07:32:10.065Z,18.43
2022-07-28T07:34:39.444Z,18.67
2022-07-28T07:37:07.960Z,18.99
2022-07-28T07:39:34.881Z,18.88
2022-07-28T07:42:04.527Z,18.49
2022-07-28T07:44:31.257Z,18.08
2022-07-28T07:46:58.395Z,17.71
2022-07-28T07:49:25.278Z,17.33
2022-07-28T07:52:12.025Z,17.09
2022-07-28T07:54:39.206Z,17.21
2022-07-28T07:57:06.143Z,17.16
2022-07-28T07:59:32.993Z,17.20
2022-07-28T08:02:01.127Z,17.55
2022-07-28T08:04:28.674Z,17.58
2022-07-28T08:06:56.150Z,17.48
2022-07-28T08:09:23.866Z,17.48
2022-07-28T08:11:50.801Z,17.48
2022-07-28T08:14:18.344Z,17.32
2022-07-28T08:16:45.359Z,17.24
2022-07-28T08:19:12.146Z,17.15
2022-07-28T08:21:39.408Z,17.37
2022-07-28T08:24:07.232Z,18.57
2022-07-28T08:26:33.992Z,19.13
2022-07-28T08:29:02.837Z,19.08
2022-07-28T08:31:29.819Z,19.12
2022-07-28T08:33:58.409Z,18.73
2022-07-28T08:36:25.243Z,18.56
2022-07-28T08:38:55.255Z,18.57
2022-07-28T08:41:45.743Z,18.22
2022-07-28T08:44:20.874Z,18.05
2022-07-28T08:46:49.304Z,17.99
2022-07-28T08:49:17.965Z,17.93
2022-07-28T08:51:49.814Z,17.83
2022-07-28T08:54:27.756Z,17.66
2022-07-28T08:56:58.631Z,17.58
2022-07-28T08:59:28.221Z,17.43
2022-07-28T09:01:57.831Z,17.67
2022-07-28T09:04:26.864Z,17.69
2022-07-28T09:06:55.797Z,17.58
2022-07-28T09:09:23.545Z,17.54
2022-07-28T09:11:52.806Z,17.49
2022-07-28T09:14:19.728Z,17.46
2022-07-28T09:16:49.031Z,17.49
2022-07-28T09:19:15.840Z,17.55
2022-07-28T09:21:43.702Z,17.67
2022-07-28T09:24:10.551Z,17.75
2022-07-28T09:26:37.253Z,17.94
2022-07-28T09:29:04.265Z,17.99
2022-07-28T09:31:31.223Z,18.03
2022-07-28T09:34:06.252Z,17.95
2022-07-28T09:36:41.906Z,17.72
2022-07-28T09:39:09.148Z,17.69
2022-07-28T09:42:08.903Z,17.59
2022-07-28T09:44:35.881Z,17.61
2022-07-28T09:47:23.897Z,17.60
2022-07-28T09:49:54.364Z,17.69
2022-07-28T09:52:41.424Z,17.69
2022-07-28T09:55:12.130Z,17.65
2022-07-28T09:57:41.635Z,17.67
2022-07-28T10:00:30.332Z,17.64
2022-07-28T10:02:58.588Z,17.68
2022-07-28T10:05:45.096Z,17.72
2022-07-28T10:08:11.900Z,17.79
2022-07-28T10:10:38.763Z,17.75
2022-07-28T10:13:06.545Z,17.71
2022-07-28T10:15:52.441Z,17.75
2022-07-28T10:18:19.309Z,17.78
2022-07-28T10:20:49.447Z,17.66
2022-07-28T10:23:18.569Z,17.87
2022-07-28T10:25:46.188Z,17.92
2022-07-28T10:28:22.918Z,18.08
2022-07-28T10:31:00.297Z,18.34
2022-07-28T10:33:32.717Z,18.50
2022-07-28T10:36:02.560Z,18.77
2022-07-28T10:38:36.982Z,18.86
2022-07-28T10:41:11.290Z,19.06
2022-07-28T10:43:42.616Z,19.23
2022-07-28T10:46:15.709Z,19.42
2022-07-28T10:48:44.456Z,19.53
2022-07-28T10:51:12.582Z,19.65
2022-07-28T10:54:05.780Z,19.68
2022-07-28T10:56:58.975Z,19.68
2022-07-28T11:00:12.718Z,19.23
2022-07-28T11:02:55.362Z,19.48
2022-07-28T11:05:35.464Z,19.57
2022-07-28T11:08:28.941Z,19.89
2022-07-28T11:11:08.738Z,19.97
2022-07-28T11:13:41.254Z,19.83
2022-07-28T11:16:14.325Z,20.04
2022-07-28T11:19:36.529Z,20.06
2022-07-28T11:22:18.453Z,19.96
2022-07-28T11:24:58.370Z,19.73
2022-07-28T11:27:45.216Z,19.70
2022-07-28T11:30:30.159Z,19.64
2022-07-28T11:33:02.246Z,19.50
2022-07-28T11:35:41.692Z,19.24
2022-07-28T11:38:12.615Z,18.98
2022-07-28T11:40:42.164Z,18.73
2022-07-28T11:43:22.051Z,18.61
2022-07-28T11:46:15.066Z,18.43
2022-07-28T11:48:45.153Z,18.36
2022-07-28T11:51:14.234Z,18.35
2022-07-28T11:53:48.160Z,18.32
2022-07-28T11:56:23.950Z,18.24
2022-07-28T11:59:07.840Z,18.26
2022-07-28T12:01:38.145Z,18.38
2022-07-28T12:04:18.220Z,18.56
2022-07-28T12:06:51.086Z,18.78
2022-07-28T12:09:21.847Z,19.05
2022-07-28T12:11:55.817Z,19.61
2022-07-28T12:14:23.252Z,19.79
2022-07-28T12:16:52.331Z,19.84
2022-07-28T12:19:21.910Z,19.87
2022-07-28T12:21:55.574Z,19.73
2022-07-28T12:24:45.796Z,19.66
2022-07-28T12:27:14.813Z,19.42
2022-07-28T12:29:42.656Z,19.40
2022-07-28T12:32:10.128Z,19.35
2022-07-28T12:34:40.678Z,19.35
2022-07-28T12:37:12.413Z,19.49
2022-07-28T12:39:42.326Z,19.62
2022-07-28T12:42:12.993Z,19.82
2022-07-28T12:44:48.096Z,19.93
2022-07-28T12:47:26.910Z,19.96
2022-07-28T12:50:19.923Z,20.08
2022-07-28T12:53:07.813Z,20.06
2022-07-28T12:55:36.216Z,20.20
2022-07-28T12:58:07.875Z,20.38
2022-07-28T13:00:37.667Z,20.70
2022-07-28T13:03:29.146Z,20.69
2022-07-28T13:06:03.559Z,20.96
2022-07-28T13:08:50.536Z,21.30
2022-07-28T13:11:47.947Z,21.25
2022-07-28T13:14:15.289Z,20.98
2022-07-28T13:16:44.549Z,20.78
2022-07-28T13:19:21.735Z,20.70
2022-07-28T13:22:01.648Z,20.81
2022-07-28T13:24:32.104Z,21.20
2022-07-28T13:27:01.597Z,21.28
2022-07-28T13:29:28.444Z,21.20
2022-07-28T13:31:55.646Z,21.64
2022-07-28T13:34:23.542Z,21.25
2022-07-28T13:36:52.264Z,20.86
2022-07-28T13:39:19.158Z,20.78
2022-07-28T13:41:58.438Z,20.64
2022-07-28T13:44:28.571Z,20.27
2022-07-28T13:46:59.117Z,20.29
2022-07-28T13:49:31.792Z,20.31
2022-07-28T13:52:00.822Z,20.12
2022-07-28T13:54:28.869Z,20.28
2022-07-28T13:57:13.333Z,20.59
2022-07-28T13:59:42.404Z,21.13
2022-07-28T14:02:14.965Z,21.03
2022-07-28T14:04:46.008Z,20.83
2022-07-28T14:07:20.811Z,20.87
2022-07-28T14:09:50.606Z,20.06
2022-07-28T14:12:18.671Z,19.58
2022-07-28T14:14:48.037Z,19.48
2022-07-28T14:17:42.388Z,19.46
2022-07-28T14:20:05.033Z,19.50
2022-07-28T14:22:31.937Z,19.47
2022-07-28T14:24:58.707Z,19.52
2022-07-28T14:27:29.131Z,19.46
2022-07-28T14:29:56.683Z,19.30
2022-07-28T14:32:23.709Z,19.24
2022-07-28T14:34:50.785Z,19.43
2022-07-28T14:37:20.258Z,19.64
2022-07-28T14:39:47.140Z,19.92
2022-07-28T14:42:14.131Z,20.01
2022-07-28T14:44:55.434Z,20.59
2022-07-28T14:47:22.354Z,20.82
2022-07-28T14:49:57.815Z,20.85
2022-07-28T14:52:28.196Z,20.87
2022-07-28T14:54:57.160Z,20.39
2022-07-28T14:57:48.770Z,19.80
2022-07-28T15:00:16.604Z,19.91
2022-07-28T15:02:45.728Z,19.77
2022-07-28T15:05:12.815Z,19.43
2022-07-28T15:07:41.968Z,19.07
2022-07-28T15:10:10.675Z,18.96
2022-07-28T15:12:40.623Z,19.25
2022-07-28T15:15:09.076Z,19.42
2022-07-28T15:17:37.539Z,19.47
2022-07-28T15:20:10.508Z,19.40
2022-07-28T15:22:41.207Z,19.39
2022-07-28T15:25:11.138Z,19.31
2022-07-28T15:27:42.931Z,19.30
2022-07-28T15:30:14.200Z,20.03
2022-07-28T15:32:57.092Z,20.53
2022-07-28T15:35:26.143Z,20.73
2022-07-28T15:37:53.892Z,20.96
2022-07-28T15:40:22.130Z,21.04
2022-07-28T15:42:49.282Z,21.16
2022-07-28T15:45:16.396Z,21.21
2022-07-28T15:47:43.205Z,21.15
2022-07-28T15:50:11.095Z,21.00
2022-07-28T15:52:43.139Z,21.21
2022-07-28T15:55:10.383Z,21.03
2022-07-28T15:57:38.666Z,21.37
2022-07-28T16:00:10.733Z,21.72
2022-07-28T16:02:37.693Z,22.08
2022-07-28T16:05:05.839Z,22.26
2022-07-28T16:07:41.920Z,22.51
2022-07-28T16:10:13.955Z,22.66
2022-07-28T16:12:41.026Z,22.84
2022-07-28T16:15:08.494Z,22.83
2022-07-28T16:17:37.162Z,22.84
2022-07-28T16:20:06.137Z,22.44
2022-07-28T16:22:38.631Z,21.94
2022-07-28T16:25:06.570Z,21.80
2022-07-28T16:27:35.329Z,21.75
2022-07-28T16:30:06.107Z,21.71
2022-07-28T16:32:34.091Z,21.52
2022-07-28T16:35:01.048Z,21.39
2022-07-28T16:37:28.100Z,21.25
2022-07-28T16:39:56.257Z,21.00
2022-07-28T16:42:23.611Z,20.81
2022-07-28T16:44:50.479Z,20.40
2022-07-28T16:47:17.294Z,20.13
2022-07-28T16:49:47.099Z,20.08
2022-07-28T16:52:14.996Z,20.09
2022-07-28T16:54:42.839Z,20.21
2022-07-28T16:57:09.839Z,20.28
2022-07-28T16:59:48.005Z,20.33
2022-07-28T17:02:16.950Z,20.51
2022-07-28T17:04:43.885Z,20.65
2022-07-28T17:07:10.932Z,20.49
2022-07-28T17:09:39.059Z,20.32
2022-07-28T17:12:09.435Z,20.09
2022-07-28T17:14:36.780Z,19.84
2022-07-28T17:17:03.693Z,19.45
2022-07-28T17:19:32.769Z,18.75
2022-07-28T17:22:01.067Z,18.74
2022-07-28T17:24:28.544Z,18.37
2022-07-28T17:29:43.225Z,18.01
2022-07-28T17:32:11.502Z,17.82
2022-07-28T17:34:38.336Z,17.76
2022-07-28T17:37:05.902Z,17.80
2022-07-28T17:39:32.771Z,17.72
2022-07-28T17:41:59.662Z,17.61
2022-07-28T17:44:31.473Z,17.50
2022-07-28T17:47:02.946Z,17.37
2022-07-28T17:49:30.595Z,17.37
2022-07-28T17:51:57.594Z,17.38
2022-07-28T17:54:25.057Z,17.25
2022-07-28T17:56:53.151Z,17.24
2022-07-28T17:59:20.476Z,17.22
2022-07-28T18:01:47.479Z,17.10
2022-07-28T18:04:14.638Z,17.15
2022-07-28T18:06:46.038Z,17.13
2022-07-28T18:09:12.915Z,17.00
2022-07-28T18:11:55.867Z,16.87
2022-07-28T18:14:31.001Z,16.79
2022-07-28T18:16:59.416Z,16.80
2022-07-28T18:19:28.216Z,16.66
2022-07-28T18:21:56.216Z,16.65
2022-07-28T18:24:23.528Z,16.59
2022-07-28T18:26:55.352Z,16.58
2022-07-28T18:29:38.592Z,16.52
2022-07-28T18:32:10.481Z,16.43
2022-07-28T18:34:40.408Z,16.43
2022-07-28T18:37:07.266Z,16.40
2022-07-28T18:39:35.865Z,16.27
2022-07-28T18:42:08.620Z,16.20
2022-07-28T18:44:35.559Z,16.20
2022-07-28T18:47:02.496Z,16.14
2022-07-28T18:49:29.595Z,16.07
2022-07-28T18:52:06.295Z,15.79
2022-07-28T18:54:33.288Z,15.54
2022-07-28T18:57:00.073Z,15.34
2022-07-28T18:59:27.107Z,15.08
2022-07-28T19:01:56.406Z,14.81
2022-07-28T19:04:23.225Z,14.59
2022-07-28T19:06:50.717Z,14.47
2022-07-28T19:09:17.691Z,14.33
2022-07-28T19:11:46.535Z,14.15
2022-07-28T19:14:16.324Z,13.95
2022-07-28T19:16:44.369Z,13.74
2022-07-28T19:19:11.410Z,13.52
2022-07-28T19:21:38.126Z,13.38
2022-07-28T19:24:10.815Z,13.24
2022-07-28T19:26:37.589Z,13.08
2022-07-28T19:29:05.544Z,12.89
2022-07-28T19:31:32.281Z,12.73
2022-07-28T19:34:00.812Z,12.55
2022-07-28T19:36:28.521Z,12.43
2022-07-28T19:38:55.271Z,12.36
2022-07-28T19:41:21.951Z,12.27
2022-07-28T19:43:48.899Z,12.22
2022-07-28T19:46:15.797Z,12.13
2022-07-28T19:48:42.590Z,12.00
2022-07-28T19:51:09.285Z,11.90
2022-07-28T19:53:38.918Z,11.78
2022-07-28T19:56:09.213Z,11.67
2022-07-28T19:58:37.110Z,11.56
2022-07-28T20:01:06.206Z,11.46
2022-07-28T20:04:01.334Z,11.36
2022-07-28T20:06:25.131Z,11.29
2022-07-28T20:08:54.011Z,11.20
2022-07-28T20:11:21.335Z,11.16
2022-07-28T20:13:49.406Z,11.11
2022-07-28T20:16:16.946Z,11.03
2022-07-28T20:18:43.789Z,10.97
2022-07-28T20:21:10.551Z,10.93
2022-07-28T20:23:40.846Z,10.93
2022-07-28T20:26:07.891Z,10.89
2022-07-28T20:28:34.525Z,10.83
2022-07-28T20:31:01.325Z,10.86
2022-07-28T20:33:28.315Z,10.82
2022-07-28T20:35:57.806Z,10.79
2022-07-28T20:38:24.481Z,10.77
2022-07-28T20:40:51.757Z,10.74
2022-07-28T20:43:18.437Z,10.74
2022-07-28T20:45:46.562Z,10.72
2022-07-28T20:48:14.443Z,10.70
2022-07-28T20:50:41.472Z,10.68
2022-07-28T20:53:10.142Z,10.68
2022-07-28T20:55:37.360Z,10.65
2022-07-28T20:58:05.868Z,10.63
2022-07-28T21:00:32.965Z,10.60
2022-07-28T21:02:59.750Z,10.54
2022-07-28T21:05:36.001Z,10.52
2022-07-28T21:08:05.748Z,10.53
2022-07-28T21:10:34.202Z,10.51
2022-07-28T21:13:00.929Z,10.46
2022-07-28T21:15:28.254Z,10.41
2022-07-28T21:17:57.902Z,10.39
2022-07-28T21:20:26.009Z,10.34
2022-07-28T21:22:53.012Z,10.30
2022-07-28T21:25:20.081Z,10.29
2022-07-28T21:28:08.075Z,10.25
2022-07-28T21:30:34.848Z,10.26
2022-07-28T21:33:04.113Z,10.25
2022-07-28T21:35:30.999Z,10.25
2022-07-28T21:37:58.276Z,10.21
2022-07-28T21:40:25.767Z,10.17
2022-07-28T21:42:55.336Z,10.15
2022-07-28T21:45:22.302Z,10.12
2022-07-28T21:47:49.326Z,10.13
2022-07-28T21:50:16.599Z,10.13
2022-07-28T21:52:45.700Z,10.15
2022-07-28T21:55:12.553Z,10.16
2022-07-28T21:57:39.257Z,10.15
2022-07-28T22:00:19.978Z,10.11
2022-07-28T22:02:46.781Z,10.06
2022-07-28T22:05:13.631Z,10.04
2022-07-28T22:07:42.350Z,10.00
2022-07-28T22:10:10.256Z,9.97
2022-07-28T22:12:37.232Z,9.95
2022-07-28T22:15:04.594Z,9.95
2022-07-28T22:17:31.340Z,9.96
2022-07-28T22:19:58.272Z,9.95
2022-07-28T22:22:25.015Z,9.94
2022-07-28T22:24:51.689Z,9.93
2022-07-28T22:27:18.419Z,9.90
2022-07-28T22:29:50.053Z,9.89
2022-07-28T22:32:28.853Z,9.92
2022-07-28T22:34:58.082Z,9.90
2022-07-28T22:37:25.406Z,9.89
2022-07-28T22:39:54.839Z,9.86
2022-07-28T22:42:22.194Z,9.86
2022-07-28T22:44:48.876Z,9.83
2022-07-28T22:47:15.757Z,9.78
2022-07-28T22:49:42.447Z,9.77
2022-07-28T22:52:12.198Z,9.72
2022-07-28T22:54:42.105Z,9.71
2022-07-28T22:57:08.833Z,9.68
2022-07-28T22:59:38.614Z,9.68
2022-07-28T23:02:07.771Z,9.65
2022-07-28T23:04:37.849Z,9.61
2022-07-28T23:07:05.324Z,9.57
2022-07-28T23:09:39.823Z,9.56
2022-07-28T23:12:08.346Z,9.58
2022-07-28T23:14:35.368Z,9.57
2022-07-28T23:17:04.002Z,9.52
2022-07-28T23:19:30.834Z,9.52
2022-07-28T23:21:57.700Z,9.51
2022-07-28T23:24:24.437Z,9.44
2022-07-28T23:26:51.357Z,9.47
2022-07-28T23:29:18.083Z,9.46
2022-07-28T23:31:44.877Z,9.44
2022-07-28T23:34:11.668Z,9.37
2022-07-28T23:36:38.353Z,9.33
2022-07-28T23:39:05.161Z,9.27
2022-07-28T23:41:32.062Z,9.23
2022-07-28T23:44:01.727Z,9.19
2022-07-28T23:46:28.578Z,9.15
2022-07-28T23:48:55.493Z,9.11
2022-07-28T23:51:31.207Z,9.08
2022-07-28T23:54:09.459Z,9.07
2022-07-28T23:56:36.905Z,9.06
2022-07-28T23:59:03.648Z,9.02
